Time;durP1;ratioP1;P1;durP2;ratioP2;P2;SDS_P1;SDS_P2;PMS_P1;PMS_P2;Temp;Humidity;BMP_temperature;BMP_pressure;BME280_temperature;BME280_humidity;BME280_pressure;Samples;Min_cycle;Max_cycle;Signal;HPM_P1;HPM_P2
2023/04/24 00:01:58;;;;;;;17.80;15.48;;;;;;;;;;5007711;28;20035;-70
2023/04/24 00:04:25;;;;;;;16.25;13.73;;;;;;;;;;5007556;28;20424;-70
2023/04/24 00:06:53;;;;;;;57.83;42.45;;;;;;;;;;5003472;28;20113;-70
2023/04/24 00:09:19;;;;;;;45.58;38.28;;;;;;;;;;5006967;28;20801;-71
2023/04/24 00:11:44;;;;;;;25.67;20.05;;;;;;;;;;5007353;28;20033;-70
2023/04/24 00:14:10;;;;;;;17.40;13.85;;;;;;;;;;5011068;28;20022;-71
2023/04/24 00:16:35;;;;;;;16.08;12.52;;;;;;;;;;5013484;28;20359;-73
2023/04/24 00:19:00;;;;;;;13.75;12.20;;;;;;;;;;5012338;28;20041;-72
2023/04/24 00:21:26;;;;;;;14.48;11.55;;;;;;;;;;5011764;28;20030;-72
2023/04/24 00:23:52;;;;;;;14.48;10.93;;;;;;;;;;5002561;28;20575;-71
2023/04/24 00:26:18;;;;;;;13.15;10.73;;;;;;;;;;5010419;28;20033;-71
2023/04/24 00:28:43;;;;;;;19.42;16.75;;;;;;;;;;5013708;28;20073;-70
2023/04/24 00:31:08;;;;;;;18.17;16.35;;;;;;;;;;5009767;28;20122;-70
2023/04/24 00:33:34;;;;;;;15.38;13.77;;;;;;;;;;5011088;28;20180;-71
2023/04/24 00:35:59;;;;;;;14.82;13.23;;;;;;;;;;5013776;28;20075;-71
2023/04/24 00:38:24;;;;;;;14.77;13.23;;;;;;;;;;5005407;28;20068;-73
2023/04/24 00:40:50;;;;;;;13.52;12.18;;;;;;;;;;5015396;28;20716;-71
2023/04/24 00:43:16;;;;;;;14.05;12.63;;;;;;;;;;5016139;28;20028;-71
2023/04/24 00:45:41;;;;;;;13.02;11.50;;;;;;;;;;5014827;28;20529;-73
2023/04/24 00:48:07;;;;;;;16.23;13.57;;;;;;;;;;5004106;28;20032;-71
2023/04/24 00:50:32;;;;;;;13.77;12.13;;;;;;;;;;5014742;28;20057;-70
2023/04/24 00:52:57;;;;;;;12.98;11.68;;;;;;;;;;5014569;28;20476;-70
2023/04/24 00:55:24;;;;;;;14.85;11.25;;;;;;;;;;5015477;28;20345;-70
2023/04/24 00:57:50;;;;;;;11.13;9.98;;;;;;;;;;5015186;28;20026;-72
2023/04/24 01:00:16;;;;;;;11.68;10.50;;;;;;;;;;5015537;28;20025;-71
2023/04/24 01:02:45;;;;;;;11.02;9.55;;;;;;;;;;5002988;28;20087;-71
2023/04/24 01:05:12;;;;;;;11.35;9.35;;;;;;;;;;5013250;28;20052;-71
2023/04/24 01:07:38;;;;;;;10.73;9.68;;;;;;;;;;5006164;28;20029;-70
2023/04/24 01:10:04;;;;;;;15.13;11.60;;;;;;;;;;5014600;28;20496;-72
2023/04/24 01:12:29;;;;;;;15.27;13.70;;;;;;;;;;5015143;28;20029;-70
2023/04/24 01:14:56;;;;;;;15.95;14.23;;;;;;;;;;5016781;28;20048;-72
2023/04/24 01:17:22;;;;;;;14.93;13.40;;;;;;;;;;5007824;28;20033;-71
2023/04/24 01:19:47;;;;;;;12.18;10.98;;;;;;;;;;5010836;28;20044;-70
2023/04/24 01:22:16;;;;;;;12.68;11.45;;;;;;;;;;5015612;28;20088;-71
2023/04/24 01:24:42;;;;;;;15.02;11.82;;;;;;;;;;5006459;28;20044;-72
2023/04/24 01:27:08;;;;;;;13.50;11.35;;;;;;;;;;5007403;28;20460;-71
2023/04/24 01:29:34;;;;;;;14.20;10.45;;;;;;;;;;5011454;28;20050;-73
2023/04/24 01:31:59;;;;;;;14.00;11.52;;;;;;;;;;5013352;28;20040;-71
2023/04/24 01:34:25;;;;;;;12.90;10.85;;;;;;;;;;5014751;28;20325;-71
2023/04/24 01:36:51;;;;;;;15.85;11.95;;;;;;;;;;5011096;28;20112;-69
2023/04/24 01:39:16;;;;;;;13.88;10.65;;;;;;;;;;5008525;28;20144;-72
2023/04/24 01:41:42;;;;;;;12.25;10.57;;;;;;;;;;5013723;28;20086;-72
2023/04/24 01:44:07;;;;;;;15.50;10.32;;;;;;;;;;5014965;28;20184;-70
2023/04/24 01:46:34;;;;;;;11.68;10.48;;;;;;;;;;5015760;28;20044;-73
2023/04/24 01:49:00;;;;;;;11.43;9.85;;;;;;;;;;5011964;28;20156;-70
2023/04/24 01:51:26;;;;;;;11.35;10.18;;;;;;;;;;5007473;28;20089;-71
2023/04/24 01:53:53;;;;;;;13.18;11.82;;;;;;;;;;5015353;28;20048;-71
2023/04/24 01:56:19;;;;;;;13.13;10.82;;;;;;;;;;5015655;28;20025;-70
2023/04/24 01:58:45;;;;;;;10.70;9.40;;;;;;;;;;5015006;28;20025;-71
2023/04/24 02:01:15;;;;;;;10.48;9.38;;;;;;;;;;5015496;28;20025;-71
2023/04/24 02:03:40;;;;;;;9.68;8.32;;;;;;;;;;5013466;28;20028;-70
2023/04/24 02:06:05;;;;;;;11.30;9.45;;;;;;;;;;5013910;28;20033;-70
2023/04/24 02:08:31;;;;;;;10.23;9.10;;;;;;;;;;5002103;28;20021;-70
2023/04/24 02:10:56;;;;;;;9.65;8.70;;;;;;;;;;5015590;28;20070;-74
2023/04/24 02:13:21;;;;;;;12.15;8.70;;;;;;;;;;5012857;28;20022;-70
2023/04/24 02:15:47;;;;;;;8.73;7.82;;;;;;;;;;5013535;28;20463;-71
2023/04/24 02:18:12;;;;;;;9.68;8.73;;;;;;;;;;5002897;28;20055;-70
2023/04/24 02:20:38;;;;;;;9.98;8.65;;;;;;;;;;5006739;28;20037;-70
2023/04/24 02:23:03;;;;;;;10.40;9.30;;;;;;;;;;5004252;28;20069;-71
2023/04/24 02:25:28;;;;;;;10.73;8.73;;;;;;;;;;5003865;28;20044;-70
2023/04/24 02:27:54;;;;;;;11.20;9.07;;;;;;;;;;5014876;28;20041;-72
2023/04/24 02:30:19;;;;;;;10.30;9.23;;;;;;;;;;5014297;28;20061;-70
2023/04/24 02:32:45;;;;;;;15.10;11.68;;;;;;;;;;5015976;28;20070;-74
2023/04/24 02:35:10;;;;;;;11.57;10.15;;;;;;;;;;5011064;28;20063;-71
2023/04/24 02:37:36;;;;;;;16.20;10.48;;;;;;;;;;5006036;28;20460;-70
2023/04/24 02:40:01;;;;;;;12.13;10.02;;;;;;;;;;5006535;28;20034;-73
2023/04/24 02:42:26;;;;;;;11.85;9.70;;;;;;;;;;5014073;28;20035;-71
2023/04/24 02:44:51;;;;;;;11.63;9.55;;;;;;;;;;5009236;28;20087;-70
2023/04/24 02:47:17;;;;;;;11.70;9.40;;;;;;;;;;5001184;28;20021;-69
2023/04/24 02:49:42;;;;;;;10.43;9.43;;;;;;;;;;5010757;28;20036;-71
2023/04/24 02:52:07;;;;;;;14.65;8.98;;;;;;;;;;5012293;28;20490;-68
2023/04/24 02:54:33;;;;;;;12.80;10.05;;;;;;;;;;5012632;28;20372;-71
2023/04/24 02:56:58;;;;;;;13.68;11.50;;;;;;;;;;5011132;28;20444;-69
2023/04/24 02:59:24;;;;;;;13.93;12.43;;;;;;;;;;5013473;28;20033;-72
2023/04/24 03:01:49;;;;;;;12.65;11.27;;;;;;;;;;5013506;28;20025;-70
2023/04/24 03:04:15;;;;;;;13.52;11.27;;;;;;;;;;5013149;28;20034;-70
2023/04/24 03:06:40;;;;;;;11.38;10.27;;;;;;;;;;5008362;28;20055;-70
2023/04/24 03:09:06;;;;;;;11.63;10.43;;;;;;;;;;5008083;28;20031;-70
2023/04/24 03:11:31;;;;;;;12.52;11.13;;;;;;;;;;5013329;28;20033;-70
2023/04/24 03:13:56;;;;;;;12.55;11.25;;;;;;;;;;5013150;28;20445;-71
2023/04/24 03:16:22;;;;;;;14.13;11.63;;;;;;;;;;5014831;28;20368;-71
2023/04/24 03:18:47;;;;;;;13.38;11.73;;;;;;;;;;5012522;28;20116;-71
2023/04/24 03:21:12;;;;;;;13.88;12.48;;;;;;;;;;5013842;28;20345;-71
2023/04/24 03:23:38;;;;;;;13.85;11.90;;;;;;;;;;5003672;28;20026;-70
2023/04/24 03:26:03;;;;;;;13.95;12.68;;;;;;;;;;5010054;28;20037;-72
2023/04/24 03:28:28;;;;;;;18.73;15.80;;;;;;;;;;5006426;28;20371;-71
2023/04/24 03:30:54;;;;;;;12.55;11.02;;;;;;;;;;5014882;28;20057;-72
2023/04/24 03:33:19;;;;;;;12.63;11.43;;;;;;;;;;5003829;28;20053;-71
2023/04/24 03:35:45;;;;;;;13.73;12.25;;;;;;;;;;5007419;28;20139;-71
2023/04/24 03:38:10;;;;;;;19.88;15.20;;;;;;;;;;4996697;28;20042;-70
2023/04/24 03:40:35;;;;;;;14.98;12.75;;;;;;;;;;4997925;28;20425;-70
2023/04/24 03:43:01;;;;;;;12.23;11.05;;;;;;;;;;5009445;28;20104;-73
2023/04/24 03:45:26;;;;;;;14.52;12.02;;;;;;;;;;5013835;28;20101;-71
2023/04/24 03:47:51;;;;;;;13.15;11.80;;;;;;;;;;5014121;28;20424;-71
2023/04/24 03:50:17;;;;;;;13.38;12.02;;;;;;;;;;5009196;28;20340;-73
2023/04/24 03:52:42;;;;;;;13.32;12.02;;;;;;;;;;5010636;28;20070;-71
2023/04/24 03:55:07;;;;;;;13.02;11.38;;;;;;;;;;5011400;28;20037;-71
2023/04/24 03:57:33;;;;;;;12.93;11.50;;;;;;;;;;5008522;28;20024;-72
2023/04/24 03:59:58;;;;;;;13.05;11.70;;;;;;;;;;5008530;28;21055;-70
2023/04/24 04:02:23;;;;;;;14.23;12.68;;;;;;;;;;5013782;28;20032;-70
2023/04/24 04:04:49;;;;;;;14.07;12.55;;;;;;;;;;5012803;28;20039;-73
2023/04/24 04:07:14;;;;;;;26.67;19.50;;;;;;;;;;5014416;28;20108;-70
2023/04/24 04:09:39;;;;;;;16.00;13.40;;;;;;;;;;5008308;28;20114;-70
2023/04/24 04:12:05;;;;;;;18.13;15.18;;;;;;;;;;5017806;28;20033;-72
2023/04/24 04:14:30;;;;;;;20.65;15.52;;;;;;;;;;5016925;28;20105;-71
2023/04/24 04:16:55;;;;;;;15.82;12.75;;;;;;;;;;5017177;28;20325;-71
2023/04/24 04:19:21;;;;;;;12.90;11.55;;;;;;;;;;5017355;28;20355;-73
2023/04/24 04:21:51;;;;;;;13.45;12.05;;;;;;;;;;5017375;28;20029;-70
2023/04/24 04:24:17;;;;;;;14.15;12.43;;;;;;;;;;5015091;28;20071;-72
2023/04/24 04:26:46;;;;;;;18.73;16.65;;;;;;;;;;5009990;28;20056;-69
2023/04/24 04:29:11;;;;;;;20.60;18.50;;;;;;;;;;5013673;28;20093;-69
2023/04/24 04:31:37;;;;;;;20.95;18.80;;;;;;;;;;5015494;28;20029;-72
2023/04/24 04:34:02;;;;;;;16.30;13.18;;;;;;;;;;5010831;28;20591;-70
2023/04/24 04:36:29;;;;;;;13.50;10.95;;;;;;;;;;5008876;28;20488;-69
2023/04/24 04:38:54;;;;;;;12.55;11.20;;;;;;;;;;5015573;28;20029;-69
2023/04/24 04:41:20;;;;;;;14.25;12.85;;;;;;;;;;5015654;28;20069;-70
2023/04/24 04:43:46;;;;;;;15.68;13.77;;;;;;;;;;5008759;28;20361;-72
2023/04/24 04:46:11;;;;;;;18.02;15.48;;;;;;;;;;5013913;28;20121;-70
2023/04/24 04:48:37;;;;;;;20.23;16.80;;;;;;;;;;5016605;28;20108;-69
2023/04/24 04:51:03;;;;;;;37.58;28.40;;;;;;;;;;5008910;28;20138;-70
2023/04/24 04:53:28;;;;;;;42.45;31.05;;;;;;;;;;5011875;28;20453;-70
2023/04/24 04:55:54;;;;;;;18.60;16.60;;;;;;;;;;5003051;28;20033;-71
2023/04/24 04:58:19;;;;;;;26.67;22.52;;;;;;;;;;5013624;28;20034;-71
2023/04/24 05:00:45;;;;;;;37.65;31.10;;;;;;;;;;5014496;28;20317;-71
2023/04/24 05:03:10;;;;;;;48.58;40.10;;;;;;;;;;5013593;28;20081;-72
2023/04/24 05:05:40;;;;;;;30.83;26.75;;;;;;;;;;5016816;28;20029;-71
2023/04/24 05:08:05;;;;;;;22.45;18.88;;;;;;;;;;5014452;28;20036;-71
2023/04/24 05:10:30;;;;;;;26.70;20.92;;;;;;;;;;5015161;28;20026;-72
2023/04/24 05:12:56;;;;;;;24.25;20.17;;;;;;;;;;5016453;28;20025;-73
2023/04/24 05:15:21;;;;;;;21.30;18.02;;;;;;;;;;5014922;28;20041;-72
2023/04/24 05:17:46;;;;;;;23.35;20.95;;;;;;;;;;5012075;28;20018;-72
2023/04/24 05:20:12;;;;;;;24.48;20.67;;;;;;;;;;5017082;28;20457;-74
2023/04/24 05:22:38;;;;;;;18.65;16.70;;;;;;;;;;5015666;28;20043;-73
2023/04/24 05:25:03;;;;;;;28.77;25.35;;;;;;;;;;5013924;28;20093;-71
2023/04/24 05:27:28;;;;;;;42.70;33.53;;;;;;;;;;5015001;28;20098;-73
2023/04/24 05:29:54;;;;;;;73.95;59.45;;;;;;;;;;5013500;28;20158;-71
2023/04/24 05:32:19;;;;;;;42.58;36.17;;;;;;;;;;5013163;28;20076;-71
2023/04/24 05:34:45;;;;;;;34.72;29.42;;;;;;;;;;5014366;28;20040;-74
2023/04/24 05:37:10;;;;;;;29.17;26.02;;;;;;;;;;5015203;28;20068;-73
2023/04/24 05:39:36;;;;;;;31.88;28.55;;;;;;;;;;5015954;28;20437;-72
2023/04/24 05:42:01;;;;;;;31.30;28.02;;;;;;;;;;5014978;28;20116;-72
2023/04/24 05:44:27;;;;;;;41.50;36.97;;;;;;;;;;5014387;28;20040;-72
2023/04/24 05:46:52;;;;;;;32.75;26.88;;;;;;;;;;5015755;28;20441;-72
2023/04/24 05:49:17;;;;;;;25.58;23.02;;;;;;;;;;5014809;28;21271;-72
2023/04/24 05:51:43;;;;;;;21.65;19.45;;;;;;;;;;5013844;28;20412;-72
2023/04/24 05:54:08;;;;;;;28.38;25.55;;;;;;;;;;5013161;28;20025;-70
2023/04/24 05:56:34;;;;;;;28.23;25.23;;;;;;;;;;5014476;28;20025;-71
2023/04/24 05:58:59;;;;;;;27.50;21.25;;;;;;;;;;5013887;28;20161;-72
2023/04/24 06:01:25;;;;;;;31.50;26.92;;;;;;;;;;5014555;28;20033;-72
2023/04/24 06:03:50;;;;;;;26.23;23.50;;;;;;;;;;5013275;28;20017;-71
2023/04/24 06:06:15;;;;;;;27.65;23.67;;;;;;;;;;5014152;28;20098;-70
2023/04/24 06:08:42;;;;;;;69.10;62.13;;;;;;;;;;5004339;28;20029;-70
2023/04/24 06:11:07;;;;;;;42.95;38.30;;;;;;;;;;5002764;28;20896;-70
2023/04/24 06:13:33;;;;;;;46.60;41.53;;;;;;;;;;5009974;28;20025;-71
2023/04/24 06:15:58;;;;;;;42.65;38.03;;;;;;;;;;5013081;28;20038;-73
2023/04/24 06:18:23;;;;;;;43.30;35.22;;;;;;;;;;5014288;28;20085;-71
2023/04/24 06:20:49;;;;;;;34.58;30.60;;;;;;;;;;5001936;28;20053;-73
2023/04/24 06:23:14;;;;;;;34.40;28.50;;;;;;;;;;5001212;28;20037;-70
2023/04/24 06:25:40;;;;;;;46.28;38.20;;;;;;;;;;5001714;28;20032;-72
2023/04/24 06:28:05;;;;;;;30.65;24.88;;;;;;;;;;5000080;28;20464;-71
2023/04/24 06:30:31;;;;;;;37.88;30.50;;;;;;;;;;5002190;28;20109;-71
2023/04/24 06:32:56;;;;;;;31.65;24.13;;;;;;;;;;5002749;28;20024;-70
2023/04/24 06:35:22;;;;;;;53.95;44.78;;;;;;;;;;5001824;28;20128;-71
2023/04/24 06:37:47;;;;;;;30.30;25.65;;;;;;;;;;5002232;28;20136;-70
2023/04/24 06:40:13;;;;;;;30.67;24.50;;;;;;;;;;5001809;28;20034;-71
2023/04/24 06:42:38;;;;;;;29.42;24.38;;;;;;;;;;5001335;28;20056;-75
2023/04/24 06:45:04;;;;;;;26.48;21.73;;;;;;;;;;5001729;28;20464;-72
2023/04/24 06:47:30;;;;;;;26.17;20.80;;;;;;;;;;5001790;28;20361;-70
2023/04/24 06:49:55;;;;;;;21.58;17.65;;;;;;;;;;5001953;28;20036;-70
2023/04/24 06:52:21;;;;;;;22.45;20.02;;;;;;;;;;5002357;28;20037;-71
2023/04/24 06:54:46;;;;;;;23.30;20.23;;;;;;;;;;5002731;28;20025;-73
2023/04/24 06:57:12;;;;;;;21.98;18.65;;;;;;;;;;5000737;28;20033;-71
2023/04/24 06:59:37;;;;;;;20.63;18.13;;;;;;;;;;5002553;28;20037;-71
2023/04/24 07:02:03;;;;;;;16.77;14.98;;;;;;;;;;5001403;28;20029;-73
2023/04/24 07:04:29;;;;;;;18.92;15.25;;;;;;;;;;5002003;28;20451;-73
2023/04/24 07:06:55;;;;;;;20.42;18.13;;;;;;;;;;5001737;28;20034;-70
2023/04/24 07:09:21;;;;;;;28.02;23.13;;;;;;;;;;5001654;28;20025;-70
2023/04/24 07:11:47;;;;;;;27.67;24.77;;;;;;;;;;5000412;28;20041;-73
2023/04/24 07:14:13;;;;;;;28.02;24.25;;;;;;;;;;5001724;28;20017;-71
2023/04/24 07:16:39;;;;;;;30.52;27.13;;;;;;;;;;5001086;28;20165;-74
2023/04/24 07:19:05;;;;;;;31.95;25.98;;;;;;;;;;4999907;28;20061;-71
2023/04/24 07:21:31;;;;;;;31.48;28.20;;;;;;;;;;5001693;28;20037;-70
2023/04/24 07:23:57;;;;;;;28.75;23.70;;;;;;;;;;5000479;28;20044;-70
2023/04/24 07:26:22;;;;;;;28.88;25.75;;;;;;;;;;5001539;28;20037;-69
2023/04/24 07:28:48;;;;;;;27.55;24.33;;;;;;;;;;4998792;28;20045;-72
2023/04/24 07:31:13;;;;;;;28.13;22.60;;;;;;;;;;5000168;28;20094;-70
2023/04/24 07:33:39;;;;;;;24.92;22.25;;;;;;;;;;5013790;28;20675;-69
2023/04/24 07:36:04;;;;;;;25.30;22.48;;;;;;;;;;5011798;28;20041;-71
2023/04/24 07:38:30;;;;;;;29.75;26.63;;;;;;;;;;5013668;28;20033;-70
2023/04/24 07:40:55;;;;;;;35.58;31.73;;;;;;;;;;5005719;28;20033;-69
2023/04/24 07:43:21;;;;;;;31.60;28.15;;;;;;;;;;5005028;28;20133;-72
2023/04/24 07:45:47;;;;;;;27.85;23.40;;;;;;;;;;5013029;28;20064;-71
2023/04/24 07:48:14;;;;;;;26.15;23.33;;;;;;;;;;5012668;28;20428;-70
2023/04/24 07:50:40;;;;;;;26.58;23.70;;;;;;;;;;5011823;28;20352;-69
2023/04/24 07:53:05;;;;;;;21.48;18.75;;;;;;;;;;5012905;28;20021;-70
2023/04/24 07:55:31;;;;;;;20.27;16.40;;;;;;;;;;5012133;28;20033;-70
2023/04/24 07:57:56;;;;;;;16.08;14.13;;;;;;;;;;5013574;28;20129;-72
2023/04/24 08:00:21;;;;;;;17.25;13.30;;;;;;;;;;5010026;28;20112;-70
2023/04/24 08:02:47;;;;;;;19.20;14.25;;;;;;;;;;5013845;28;20033;-73
2023/04/24 08:05:12;;;;;;;15.95;14.32;;;;;;;;;;5011846;28;20040;-70
2023/04/24 08:07:38;;;;;;;21.02;16.90;;;;;;;;;;5012902;28;20124;-71
2023/04/24 08:10:03;;;;;;;77.70;58.10;;;;;;;;;;5013984;28;20053;-69
2023/04/24 08:12:29;;;;;;;25.15;20.83;;;;;;;;;;5014121;28;20068;-70
2023/04/24 08:14:54;;;;;;;17.25;14.85;;;;;;;;;;5014214;28;20070;-70
2023/04/24 08:17:20;;;;;;;16.35;14.60;;;;;;;;;;5010402;28;20076;-70
2023/04/24 08:19:48;;;;;;;16.85;13.55;;;;;;;;;;5000779;28;20048;-71
2023/04/24 08:22:16;;;;;;;16.83;13.52;;;;;;;;;;4999574;28;20033;-72
2023/04/24 08:24:42;;;;;;;13.90;12.15;;;;;;;;;;5000631;28;20022;-72
2023/04/24 08:27:08;;;;;;;14.70;12.65;;;;;;;;;;4999503;28;20052;-72
2023/04/24 08:29:33;;;;;;;13.00;11.60;;;;;;;;;;5001022;28;20050;-71
2023/04/24 08:31:59;;;;;;;14.77;13.23;;;;;;;;;;5000399;28;20409;-70
2023/04/24 08:34:24;;;;;;;17.83;13.07;;;;;;;;;;5011796;28;20064;-70
2023/04/24 08:36:50;;;;;;;14.60;12.18;;;;;;;;;;5012291;28;20039;-71
2023/04/24 08:39:15;;;;;;;12.38;11.07;;;;;;;;;;5007848;28;20033;-71
2023/04/24 08:41:45;;;;;;;18.25;10.73;;;;;;;;;;5002146;28;20371;-74
2023/04/24 08:44:10;;;;;;;;;;;;;;;;;;5006678;28;20078;-70
2023/04/24 08:46:35;;;;;;;27.60;21.77;;;;;;;;;;5012418;28;19913;-71
2023/04/24 08:49:02;;;;;;;22.52;18.52;;;;;;;;;;5010564;28;20461;-73
2023/04/24 08:51:27;;;;;;;14.38;11.77;;;;;;;;;;5012593;28;20112;-71
2023/04/24 08:53:53;;;;;;;22.17;19.60;;;;;;;;;;5017050;28;20104;-74
2023/04/24 08:56:19;;;;;;;35.70;27.85;;;;;;;;;;5015389;28;20088;-71
2023/04/24 08:58:45;;;;;;;42.25;33.67;;;;;;;;;;5015987;28;20061;-72
2023/04/24 09:01:10;;;;;;;18.80;16.52;;;;;;;;;;5015626;28;20029;-72
2023/04/24 09:03:36;;;;;;;21.33;17.88;;;;;;;;;;5016044;28;20442;-72
2023/04/24 09:06:02;;;;;;;17.08;13.90;;;;;;;;;;5015439;28;20044;-74
2023/04/24 09:08:28;;;;;;;10.73;8.88;;;;;;;;;;5014374;28;20050;-72
2023/04/24 09:10:53;;;;;;;12.05;10.80;;;;;;;;;;5014521;28;20090;-71
2023/04/24 09:13:19;;;;;;;37.25;28.60;;;;;;;;;;5014948;28;20043;-71
2023/04/24 09:15:44;;;;;;;18.73;13.27;;;;;;;;;;5016148;28;20033;-71
2023/04/24 09:18:10;;;;;;;113.30;82.88;;;;;;;;;;5014137;28;20022;-71
2023/04/24 09:20:55;;;;;;;28.08;22.25;;;;;;;;;;5015844;28;20026;-72
2023/04/24 09:23:20;;;;;;;27.10;21.95;;;;;;;;;;5014370;28;20034;-72
2023/04/24 09:25:46;;;;;;;66.63;48.03;;;;;;;;;;5013112;28;20348;-72
2023/04/24 09:28:11;;;;;;;31.65;21.10;;;;;;;;;;5010395;28;20060;-71
2023/04/24 09:30:37;;;;;;;33.17;20.75;;;;;;;;;;5015378;28;20025;-72
2023/04/24 09:33:15;;;;;;;23.15;19.35;;;;;;;;;;5016154;28;20133;-70
2023/04/24 09:35:52;;;;;;;35.50;27.23;;;;;;;;;;5016552;28;20045;-70
2023/04/24 09:38:18;;;;;;;15.07;10.85;;;;;;;;;;5015025;28;20048;-72
2023/04/24 09:40:44;;;;;;;26.77;19.25;;;;;;;;;;5015144;28;20328;-71
2023/04/24 09:43:12;;;;;;;16.27;12.68;;;;;;;;;;5008882;28;20105;-72
2023/04/24 09:45:38;;;;;;;11.07;8.70;;;;;;;;;;5011133;28;20022;-72
2023/04/24 09:48:06;;;;;;;10.43;8.00;;;;;;;;;;5016018;28;20164;-73
2023/04/24 09:50:31;;;;;;;9.60;7.88;;;;;;;;;;5015469;28;20105;-71
2023/04/24 09:52:58;;;;;;;7.90;7.00;;;;;;;;;;5013346;28;20104;-73
2023/04/24 09:55:24;;;;;;;12.32;9.75;;;;;;;;;;5013726;28;20356;-72
2023/04/24 09:57:50;;;;;;;20.55;15.73;;;;;;;;;;5014168;28;20029;-73
2023/04/24 10:00:19;;;;;;;14.73;11.40;;;;;;;;;;5016582;28;20037;-72
2023/04/24 10:02:44;;;;;;;;;;;;;;;;;;5006133;28;20021;-72
2023/04/24 10:05:11;;;;;;;12.73;9.80;;;;;;;;;;5002273;28;19913;-74
2023/04/24 10:07:37;;;;;;;14.23;11.45;;;;;;;;;;5002579;28;20115;-72
2023/04/24 10:10:02;;;;;;;11.25;10.15;;;;;;;;;;5003719;28;20029;-71
2023/04/24 10:12:28;;;;;;;10.00;7.68;;;;;;;;;;5015063;28;20036;-74
2023/04/24 10:14:54;;;;;;;13.55;11.45;;;;;;;;;;5014880;28;20032;-71
2023/04/24 10:17:20;;;;;;;14.45;10.05;;;;;;;;;;5016147;28;20040;-73
2023/04/24 10:19:47;;;;;;;10.27;9.20;;;;;;;;;;5014604;28;20797;-71
2023/04/24 10:22:12;;;;;;;14.73;12.32;;;;;;;;;;5008078;28;20033;-71
2023/04/24 10:24:38;;;;;;;12.57;11.27;;;;;;;;;;5003286;28;20033;-71
2023/04/24 10:27:04;;;;;;;14.52;8.85;;;;;;;;;;5010336;28;20029;-70
2023/04/24 10:29:31;;;;;;;11.20;8.82;;;;;;;;;;5012905;28;20860;-70
2023/04/24 10:31:56;;;;;;;15.30;11.60;;;;;;;;;;5015607;28;20485;-71
2023/04/24 10:34:23;;;;;;;10.77;9.10;;;;;;;;;;5015432;28;20044;-71
2023/04/24 10:36:50;;;;;;;9.82;8.82;;;;;;;;;;5014749;28;20158;-71
2023/04/24 10:39:16;;;;;;;16.08;10.65;;;;;;;;;;5015052;28;20029;-71
2023/04/24 10:41:42;;;;;;;16.70;12.25;;;;;;;;;;5014745;28;20345;-70
2023/04/24 10:44:11;;;;;;;12.38;7.78;;;;;;;;;;5012398;28;20052;-70
2023/04/24 10:46:37;;;;;;;14.07;12.02;;;;;;;;;;5014394;28;20037;-71
2023/04/24 10:49:08;;;;;;;13.70;9.02;;;;;;;;;;5013121;28;20108;-72
2023/04/24 10:51:47;;;;;;;24.58;19.23;;;;;;;;;;5011723;28;20377;-71
2023/04/24 10:54:23;;;;;;;12.20;9.27;;;;;;;;;;5013416;28;20103;-73
2023/04/24 10:56:49;;;;;;;17.63;13.50;;;;;;;;;;5012973;28;20477;-71
2023/04/24 10:59:23;;;;;;;30.38;21.60;;;;;;;;;;5013554;28;20078;-71
2023/04/24 11:01:53;;;;;;;11.63;9.35;;;;;;;;;;5014148;28;20028;-70
2023/04/24 11:04:18;;;;;;;;;;;;;;;;;;5013809;28;20030;-71
2023/04/24 11:06:43;;;;;;;10.00;8.10;;;;;;;;;;5015001;28;19920;-71
2023/04/24 11:09:12;;;;;;;11.30;9.45;;;;;;;;;;5013995;28;21287;-70
2023/04/24 11:11:39;;;;;;;14.00;10.32;;;;;;;;;;5012526;28;20459;-71
2023/04/24 11:14:06;;;;;;;15.43;10.20;;;;;;;;;;5013830;28;20025;-71
2023/04/24 11:16:35;;;;;;;22.25;15.27;;;;;;;;;;5014034;28;20049;-72
2023/04/24 11:19:03;;;;;;;13.93;9.13;;;;;;;;;;5014674;28;20029;-70
2023/04/24 11:21:47;;;;;;;11.50;8.23;;;;;;;;;;5011822;28;20026;-72
2023/04/24 11:24:31;;;;;;;8.77;7.55;;;;;;;;;;5011500;28;20065;-72
2023/04/24 11:27:05;;;;;;;9.63;8.27;;;;;;;;;;5011244;28;21122;-71
2023/04/24 11:29:40;;;;;;;18.90;13.57;;;;;;;;;;5014744;28;20057;-72
2023/04/24 11:32:18;;;;;;;13.50;9.32;;;;;;;;;;5013079;28;20116;-70
2023/04/24 11:34:47;;;;;;;16.17;11.27;;;;;;;;;;5012693;28;20135;-71
2023/04/24 11:37:12;;;;;;;;;;;;;;;;;;5012740;28;20441;-75
2023/04/24 11:39:38;;;;;;;9.73;8.07;;;;;;;;;;5014527;28;19909;-71
2023/04/24 11:42:03;;;;;;;11.30;7.82;;;;;;;;;;5011605;28;20109;-72
2023/04/24 11:44:29;;;;;;;11.18;8.48;;;;;;;;;;5013288;28;20129;-72
2023/04/24 11:46:55;;;;;;;8.38;6.78;;;;;;;;;;5013211;28;20033;-71
2023/04/24 11:49:21;;;;;;;11.55;8.55;;;;;;;;;;5013873;28;20029;-72
2023/04/24 11:51:46;;;;;;;14.35;9.02;;;;;;;;;;5012623;28;20026;-72
2023/04/24 11:54:11;;;;;;;10.43;9.35;;;;;;;;;;5012037;28;20025;-71
2023/04/24 11:56:37;;;;;;;39.22;24.88;;;;;;;;;;5013009;28;20074;-71
2023/04/24 11:59:03;;;;;;;12.98;9.93;;;;;;;;;;5013456;28;20151;-73
2023/04/24 12:01:29;;;;;;;13.77;11.20;;;;;;;;;;5014145;28;20030;-71
2023/04/24 12:03:59;;;;;;;11.70;7.97;;;;;;;;;;5013065;28;20029;-71
2023/04/24 12:06:25;;;;;;;7.47;6.78;;;;;;;;;;5012303;28;20182;-71
2023/04/24 12:08:52;;;;;;;9.18;7.55;;;;;;;;;;5014389;28;21670;-73
2023/04/24 12:11:18;;;;;;;8.73;7.85;;;;;;;;;;5013437;28;20026;-71
2023/04/24 12:13:43;;;;;;;34.72;21.48;;;;;;;;;;5010942;28;20041;-71
2023/04/24 12:16:09;;;;;;;12.23;9.52;;;;;;;;;;5011689;28;20390;-71
2023/04/24 12:18:34;;;;;;;10.57;8.20;;;;;;;;;;5012293;28;20037;-72
2023/04/24 12:21:18;;;;;;;9.00;8.05;;;;;;;;;;5011715;28;20033;-72
2023/04/24 12:23:45;;;;;;;11.48;9.32;;;;;;;;;;5013119;28;20095;-74
2023/04/24 12:26:10;;;;;;;12.65;10.52;;;;;;;;;;5013780;28;20025;-71
2023/04/24 12:28:36;;;;;;;10.63;8.25;;;;;;;;;;5016501;28;20420;-71
2023/04/24 12:31:02;;;;;;;11.15;8.38;;;;;;;;;;5014095;28;20169;-71
2023/04/24 12:33:27;;;;;;;10.02;8.25;;;;;;;;;;5016833;28;20029;-72
2023/04/24 12:35:53;;;;;;;24.05;17.30;;;;;;;;;;5017110;28;20094;-74
2023/04/24 12:38:22;;;;;;;31.08;23.70;;;;;;;;;;5015836;28;20029;-73
2023/04/24 12:40:47;;;;;;;15.80;11.97;;;;;;;;;;5016270;28;20704;-73
2023/04/24 12:43:16;;;;;;;11.57;8.32;;;;;;;;;;5017901;28;20067;-74
2023/04/24 12:45:41;;;;;;;14.43;10.70;;;;;;;;;;5015449;28;20711;-71
2023/04/24 12:48:06;;;;;;;18.10;14.73;;;;;;;;;;5015490;28;20441;-71
2023/04/24 12:50:32;;;;;;;15.68;12.68;;;;;;;;;;5014950;28;20025;-71
2023/04/24 12:52:57;;;;;;;9.82;8.60;;;;;;;;;;5016097;28;20026;-71
2023/04/24 12:55:23;;;;;;;15.02;9.25;;;;;;;;;;5015811;28;20120;-73
2023/04/24 12:57:48;;;;;;;18.52;10.93;;;;;;;;;;5014028;28;20153;-71
2023/04/24 13:00:14;;;;;;;17.05;12.15;;;;;;;;;;5015597;28;20456;-74
2023/04/24 13:02:39;;;;;;;21.23;16.42;;;;;;;;;;5016760;28;20029;-71
2023/04/24 13:05:05;;;;;;;8.95;7.15;;;;;;;;;;5014442;28;20083;-71
2023/04/24 13:07:30;;;;;;;10.45;7.38;;;;;;;;;;5014147;28;20064;-71
2023/04/24 13:09:57;;;;;;;21.73;13.57;;;;;;;;;;5015112;28;20421;-71
2023/04/24 13:12:23;;;;;;;9.57;8.00;;;;;;;;;;5014417;28;20022;-74
2023/04/24 13:14:49;;;;;;;13.38;7.90;;;;;;;;;;5017146;28;20467;-71
2023/04/24 13:17:14;;;;;;;8.68;6.35;;;;;;;;;;5015193;28;20060;-72
2023/04/24 13:19:40;;;;;;;63.40;36.63;;;;;;;;;;5014345;28;20030;-72
2023/04/24 13:22:06;;;;;;;74.63;40.90;;;;;;;;;;5004899;28;20070;-71
2023/04/24 13:24:32;;;;;;;22.50;13.65;;;;;;;;;;5009723;28;20033;-73
2023/04/24 13:26:58;;;;;;;32.75;19.25;;;;;;;;;;5010732;28;20038;-71
2023/04/24 13:29:23;;;;;;;18.77;12.65;;;;;;;;;;5016099;28;20758;-71
2023/04/24 13:31:54;;;;;;;35.42;21.80;;;;;;;;;;5016129;28;20069;-73
2023/04/24 13:34:19;;;;;;;11.35;7.78;;;;;;;;;;5009183;28;20053;-73
2023/04/24 13:36:45;;;;;;;11.02;7.47;;;;;;;;;;5004604;28;20060;-74
2023/04/24 13:39:10;;;;;;;13.75;10.45;;;;;;;;;;5008615;28;20033;-71
2023/04/24 13:41:36;;;;;;;9.68;7.43;;;;;;;;;;5013039;28;20049;-72
2023/04/24 13:44:01;;;;;;;9.88;8.80;;;;;;;;;;5012131;28;20045;-71
2023/04/24 13:46:27;;;;;;;14.48;12.13;;;;;;;;;;5014579;28;20029;-72
2023/04/24 13:48:52;;;;;;;10.00;8.80;;;;;;;;;;5016433;28;20025;-71
2023/04/24 13:51:17;;;;;;;10.55;7.45;;;;;;;;;;5015449;28;20026;-74
2023/04/24 13:53:43;;;;;;;9.18;8.15;;;;;;;;;;5013126;28;20038;-71
2023/04/24 13:56:08;;;;;;;9.32;8.45;;;;;;;;;;4996890;28;20029;-71
2023/04/24 13:58:35;;;;;;;8.60;7.72;;;;;;;;;;5001537;28;20036;-73
2023/04/24 14:01:01;;;;;;;12.57;9.68;;;;;;;;;;5003998;28;20017;-72
2023/04/24 14:03:26;;;;;;;22.98;17.75;;;;;;;;;;5002430;28;20137;-72
2023/04/24 14:05:51;;;;;;;28.23;18.25;;;;;;;;;;5003666;28;20018;-75
2023/04/24 14:08:17;;;;;;;45.08;30.20;;;;;;;;;;5005828;28;20043;-73
2023/04/24 14:10:42;;;;;;;29.80;20.63;;;;;;;;;;5005366;28;20032;-71
2023/04/24 14:13:08;;;;;;;18.92;13.10;;;;;;;;;;4998854;28;20117;-72
2023/04/24 14:15:35;;;;;;;13.07;10.25;;;;;;;;;;5007683;28;20041;-71
2023/04/24 14:18:00;;;;;;;18.27;16.30;;;;;;;;;;4999941;28;20440;-72